Time;durP1;ratioP1;P1;durP2;ratioP2;P2;SDS_P1;SDS_P2;PMS_P1;PMS_P2;Temp;Humidity;BMP_temperature;BMP_pressure;BME280_temperature;BME280_humidity;BME280_pressure;Samples;Min_cycle;Max_cycle;Signal;HPM_P1;HPM_P2
2023/09/07 00:00:43;;;;;;;5.40;4.07;;;;;;;22.12;100.00;99873.13;5110888;28;20268;-71
2023/09/07 00:03:10;;;;;;;6.40;4.80;;;;;;;22.15;100.00;99877.28;5111742;28;20194;-70
2023/09/07 00:05:36;;;;;;;8.10;4.10;;;;;;;22.15;100.00;99866.84;5111779;28;20559;-71
2023/09/07 00:08:04;;;;;;;5.53;5.07;;;;;;;22.18;100.00;99866.63;5111458;28;20247;-70
2023/09/07 00:10:30;;;;;;;5.03;4.63;;;;;;;22.19;100.00;99863.06;5109784;28;20190;-71
2023/09/07 00:12:57;;;;;;;5.33;4.83;;;;;;;22.23;100.00;99872.38;5111653;28;20223;-71
2023/09/07 00:15:26;;;;;;;5.53;4.87;;;;;;;22.11;100.00;99868.81;5110974;28;20293;-71
2023/09/07 00:17:53;;;;;;;5.33;4.03;;;;;;;22.13;100.00;99869.56;5111734;28;20566;-71
2023/09/07 00:20:21;;;;;;;5.10;4.70;;;;;;;22.09;100.00;99872.50;5111472;28;20283;-71
2023/09/07 00:22:48;;;;;;;4.03;3.77;;;;;;;22.09;100.00;99867.25;5111362;28;20199;-72
2023/09/07 00:25:14;;;;;;;5.80;4.87;;;;;;;22.01;100.00;99866.94;5111261;28;20236;-71
2023/09/07 00:27:41;;;;;;;4.70;4.43;;;;;;;21.94;100.00;99869.16;5111382;28;20199;-71
2023/09/07 00:30:09;;;;;;;5.63;4.57;;;;;;;21.91;100.00;99864.97;5111084;28;20191;-72
2023/09/07 00:32:38;;;;;;;7.27;5.33;;;;;;;21.95;100.00;99871.66;5108903;28;20191;-71
2023/09/07 00:35:06;;;;;;;4.97;4.63;;;;;;;21.98;100.00;99866.22;5111346;28;20252;-71
2023/09/07 00:37:33;;;;;;;5.07;4.60;;;;;;;21.97;100.00;99859.34;5111129;28;20612;-71
2023/09/07 00:40:00;;;;;;;4.20;4.00;;;;;;;21.95;100.00;99861.22;5110752;28;20267;-71
2023/09/07 00:42:26;;;;;;;7.93;4.00;;;;;;;21.97;100.00;99864.56;5110404;28;20247;-71
2023/09/07 00:44:54;;;;;;;5.17;4.70;;;;;;;21.96;100.00;99868.13;5111209;28;20248;-70
2023/09/07 00:47:22;;;;;;;4.77;4.13;;;;;;;21.96;100.00;99873.34;5110541;28;20199;-70
2023/09/07 00:49:51;;;;;;;5.80;4.50;;;;;;;21.95;100.00;99865.59;5111068;28;21338;-71
2023/09/07 00:52:19;;;;;;;5.43;5.13;;;;;;;21.78;100.00;99864.13;5109813;28;20255;-71
2023/09/07 00:54:46;;;;;;;5.33;4.93;;;;;;;21.84;100.00;99868.91;5110998;28;20649;-71
2023/09/07 00:57:13;;;;;;;4.93;4.57;;;;;;;21.83;100.00;99872.50;5110910;28;20202;-71
2023/09/07 00:59:39;;;;;;;4.97;4.67;;;;;;;21.83;100.00;99862.06;5109487;28;20202;-71
2023/09/07 01:02:06;;;;;;;6.27;4.57;;;;;;;21.87;100.00;99863.50;5110595;28;20199;-71
2023/09/07 01:04:33;;;;;;;5.47;5.00;;;;;;;21.91;100.00;99861.53;5110815;28;20248;-70
2023/09/07 01:07:08;;;;;;;5.03;4.73;;;;;;;21.96;100.00;99859.47;5110577;28;20237;-71
2023/09/07 01:09:37;;;;;;;4.37;4.07;;;;;;;21.90;100.00;99842.44;5109845;28;20198;-70
2023/09/07 01:12:05;;;;;;;6.20;5.00;;;;;;;22.03;100.00;99855.47;5110251;28;20275;-71
2023/09/07 01:14:31;;;;;;;4.60;4.20;;;;;;;22.07;100.00;99858.72;5110037;28;20203;-71
2023/09/07 01:16:58;;;;;;;5.53;5.23;;;;;;;22.06;100.00;99851.81;5110939;28;20605;-71
2023/09/07 01:19:25;;;;;;;5.47;4.97;;;;;;;22.03;100.00;99846.81;5110309;28;20198;-72
2023/09/07 01:21:53;;;;;;;5.63;5.00;;;;;;;22.03;100.00;99858.09;5110502;28;20226;-71
2023/09/07 01:24:21;;;;;;;4.13;3.83;;;;;;;21.98;100.00;99840.13;5110597;28;20251;-71
2023/09/07 01:26:49;;;;;;;5.20;4.90;;;;;;;22.09;100.00;99855.06;5110640;28;20194;-71
2023/09/07 01:29:17;;;;;;;5.47;5.07;;;;;;;22.11;100.00;99849.69;5110176;28;20247;-71
2023/09/07 01:31:44;;;;;;;4.67;4.37;;;;;;;22.11;100.00;99849.69;5110483;28;20221;-70
2023/09/07 01:34:11;;;;;;;6.93;5.10;;;;;;;22.12;100.00;99852.22;5110649;28;20198;-71
2023/09/07 01:36:37;;;;;;;5.93;5.37;;;;;;;22.13;100.00;99853.06;5110768;28;20638;-71
2023/09/07 01:39:06;;;;;;;5.33;4.63;;;;;;;22.06;100.00;99847.44;5109925;28;20198;-71
2023/09/07 01:41:34;;;;;;;5.00;4.80;;;;;;;22.14;100.00;99854.72;5109646;28;20215;-71
2023/09/07 01:44:01;;;;;;;6.07;5.40;;;;;;;22.14;100.00;99862.53;5110312;28;20685;-71
2023/09/07 01:46:28;;;;;;;5.33;4.83;;;;;;;22.11;100.00;99853.16;5109928;28;20252;-71
2023/09/07 01:48:54;;;;;;;6.17;4.33;;;;;;;22.10;100.00;99858.50;5110199;28;20195;-70
2023/09/07 01:51:21;;;;;;;16.93;5.07;;;;;;;22.09;100.00;99868.09;5110330;28;20678;-71
2023/09/07 01:53:49;;;;;;;5.20;4.77;;;;;;;22.08;100.00;99865.59;5113524;28;20240;-71
2023/09/07 01:56:17;;;;;;;5.87;5.37;;;;;;;22.06;100.00;99863.09;5114180;28;20301;-71
2023/09/07 01:58:44;;;;;;;5.47;5.17;;;;;;;22.00;100.00;99852.25;5114410;28;20621;-71
2023/09/07 02:01:21;;;;;;;6.03;5.43;;;;;;;22.01;100.00;99856.50;5113868;28;20226;-71
2023/09/07 02:03:48;;;;;;;4.57;4.23;;;;;;;22.00;100.00;99868.75;5114524;28;20259;-71
2023/09/07 02:06:15;;;;;;;5.40;4.93;;;;;;;21.98;100.00;99865.41;5113719;28;20297;-71
2023/09/07 02:08:42;;;;;;;4.60;4.30;;;;;;;21.97;100.00;99864.56;5114144;28;20283;-71
2023/09/07 02:11:09;;;;;;;5.07;4.70;;;;;;;21.95;100.00;99866.44;5113633;28;20199;-71
2023/09/07 02:13:37;;;;;;;5.40;4.97;;;;;;;21.93;100.00;99863.13;5112739;28;20279;-71
2023/09/07 02:16:05;;;;;;;6.13;4.80;;;;;;;21.87;100.00;99867.91;5109525;28;20195;-71
2023/09/07 02:18:32;;;;;;;5.47;5.07;;;;;;;21.86;100.00;99861.00;5112257;28;20198;-71
2023/09/07 02:21:02;;;;;;;10.57;5.10;;;;;;;21.83;100.00;99867.28;5113932;28;20222;-71
2023/09/07 02:23:30;;;;;;;7.03;6.43;;;;;;;21.80;100.00;99867.50;5113702;28;20197;-71
2023/09/07 02:25:57;;;;;;;6.90;6.40;;;;;;;21.79;100.00;99865.81;5113635;28;20195;-72
2023/09/07 02:28:24;;;;;;;5.07;4.77;;;;;;;21.75;100.00;99866.94;5113169;28;20286;-71
2023/09/07 02:30:52;;;;;;;4.07;3.77;;;;;;;21.74;100.00;99867.91;5113837;28;20195;-71
2023/09/07 02:33:19;;;;;;;6.17;5.67;;;;;;;21.72;100.00;99864.56;5113370;28;20198;-71
2023/09/07 02:35:46;;;;;;;8.23;5.73;;;;;;;21.60;100.00;99854.97;5113645;28;20199;-71
2023/09/07 02:38:13;;;;;;;4.70;4.40;;;;;;;21.58;100.00;99864.69;5113302;28;20194;-71
2023/09/07 02:40:43;;;;;;;5.93;5.43;;;;;;;21.58;100.00;99862.06;5113529;28;20214;-71
2023/09/07 02:43:10;;;;;;;4.50;4.10;;;;;;;21.56;100.00;99858.72;5113316;28;20206;-71
2023/09/07 02:45:37;;;;;;;7.20;5.37;;;;;;;21.53;100.00;99853.69;5110557;28;20194;-71
2023/09/07 02:48:05;;;;;;;5.43;4.17;;;;;;;21.34;100.00;99835.03;5113230;28;20887;-71
2023/09/07 02:51:01;;;;;;;5.80;5.07;;;;;;;21.46;100.00;99868.09;5111973;28;20209;-70
2023/09/07 02:53:28;;;;;;;4.70;4.33;;;;;;;21.44;100.00;99856.94;5111054;28;20723;-70
2023/09/07 02:55:54;;;;;;;4.97;4.53;;;;;;;21.42;100.00;99861.44;5113208;28;20274;-70
2023/09/07 02:58:21;;;;;;;5.23;4.87;;;;;;;21.39;100.00;99859.00;5112504;28;20206;-70
2023/09/07 03:00:48;;;;;;;4.97;4.60;;;;;;;21.39;100.00;99861.63;5112927;28;20210;-70
2023/09/07 03:03:16;;;;;;;4.93;4.53;;;;;;;21.38;100.00;99862.56;5112700;28;20586;-70
2023/09/07 03:05:46;;;;;;;5.53;5.03;;;;;;;21.28;100.00;99858.91;5112135;28;20205;-70
2023/09/07 03:08:13;;;;;;;5.70;5.20;;;;;;;21.17;100.00;99859.59;5112299;28;20202;-70
2023/09/07 03:10:40;;;;;;;5.23;4.83;;;;;;;21.15;100.00;99863.25;5112814;28;20191;-70
2023/09/07 03:13:07;;;;;;;4.50;4.20;;;;;;;21.16;100.00;99857.13;5112758;28;20700;-70
2023/09/07 03:15:34;;;;;;;4.33;4.03;;;;;;;21.02;100.00;99849.34;5112603;28;20624;-70
2023/09/07 03:18:01;;;;;;;4.63;4.23;;;;;;;20.97;100.00;99869.66;5112214;28;20220;-70
2023/09/07 03:20:30;;;;;;;5.20;4.13;;;;;;;20.87;100.00;99864.22;5112229;28;20221;-70
2023/09/07 03:22:57;;;;;;;4.63;4.23;;;;;;;20.74;100.00;99871.97;5112641;28;20198;-70
2023/09/07 03:25:24;;;;;;;7.40;4.97;;;;;;;20.64;100.00;99857.03;5112489;28;20206;-71
2023/09/07 03:27:50;;;;;;;5.13;4.27;;;;;;;20.71;100.00;99864.34;5112396;28;20195;-70
2023/09/07 03:30:17;;;;;;;4.77;4.37;;;;;;;20.62;100.00;99869.31;5112098;28;20198;-70
2023/09/07 03:32:44;;;;;;;4.33;4.13;;;;;;;20.51;100.00;99877.00;5112393;28;20250;-70
2023/09/07 03:35:11;;;;;;;5.30;4.90;;;;;;;20.49;100.00;99871.88;5112144;28;20199;-70
2023/09/07 03:37:39;;;;;;;5.73;5.23;;;;;;;20.51;100.00;99877.81;5112298;28;20271;-70
2023/09/07 03:40:08;;;;;;;5.67;4.43;;;;;;;20.59;100.00;99875.56;5111735;28;20255;-70
2023/09/07 03:42:35;;;;;;;4.30;3.70;;;;;;;20.60;100.00;99881.59;5111641;28;20291;-70
2023/09/07 03:45:03;;;;;;;4.67;4.27;;;;;;;20.62;100.00;99885.78;5111949;28;20579;-70
2023/09/07 03:47:29;;;;;;;5.23;4.80;;;;;;;20.67;100.00;99888.94;5112291;28;20190;-70
2023/09/07 03:49:56;;;;;;;4.40;4.20;;;;;;;20.70;100.00;99878.31;5112137;28;20609;-70
2023/09/07 03:52:24;;;;;;;7.77;4.80;;;;;;;20.75;100.00;99891.03;5111580;28;20249;-70
2023/09/07 03:54:53;;;;;;;5.77;3.63;;;;;;;20.77;100.00;99884.81;5111531;28;20579;-70
2023/09/07 03:57:19;;;;;;;8.30;4.37;;;;;;;20.79;100.00;99893.38;5111825;28;20578;-70
2023/09/07 03:59:46;;;;;;;4.57;4.27;;;;;;;20.76;100.00;99882.31;5112165;28;20233;-70
2023/09/07 04:02:13;;;;;;;4.53;4.17;;;;;;;20.76;100.00;99898.78;5110307;28;20218;-70
2023/09/07 04:04:40;;;;;;;4.40;4.07;;;;;;;20.68;100.00;99890.59;5111872;28;20197;-70
2023/09/07 04:07:06;;;;;;;4.87;4.47;;;;;;;20.69;100.00;99889.69;5111260;28;20250;-70
2023/09/07 04:09:33;;;;;;;5.47;4.87;;;;;;;20.70;100.00;99896.56;5111977;28;20193;-70
2023/09/07 04:12:03;;;;;;;4.93;4.50;;;;;;;20.72;100.00;99886.88;5111620;28;20222;-70
2023/09/07 04:14:30;;;;;;;4.57;4.33;;;;;;;20.73;100.00;99893.75;5110354;28;20689;-70
2023/09/07 04:16:56;;;;;;;5.03;4.53;;;;;;;20.76;100.00;99892.72;5111430;28;20195;-69
2023/09/07 04:19:23;;;;;;;5.83;5.20;;;;;;;20.75;100.00;99902.31;5111125;28;20202;-70
2023/09/07 04:21:50;;;;;;;5.87;5.17;;;;;;;20.76;100.00;99898.78;5111095;27;20697;-70
2023/09/07 04:24:17;;;;;;;6.07;5.47;;;;;;;20.81;100.00;99901.91;5110805;28;20255;-70
2023/09/07 04:26:48;;;;;;;6.97;5.40;;;;;;;20.84;100.00;99904.31;5111519;27;20206;-70
2023/09/07 04:29:17;;;;;;;5.97;5.47;;;;;;;20.87;100.00;99911.94;5111416;28;20201;-70
2023/09/07 04:31:43;;;;;;;5.33;4.77;;;;;;;20.92;100.00;99899.47;5111437;28;20201;-70
2023/09/07 04:34:10;;;;;;;5.13;4.83;;;;;;;20.99;100.00;99907.72;5110854;28;20255;-70
2023/09/07 04:36:37;;;;;;;5.67;5.17;;;;;;;21.03;100.00;99893.56;5111144;28;20195;-70
2023/09/07 04:39:04;;;;;;;5.03;4.63;;;;;;;21.15;100.00;99904.97;5111141;28;20676;-70
2023/09/07 04:41:31;;;;;;;4.97;4.57;;;;;;;21.25;100.00;99901.69;5111157;28;20325;-70
2023/09/07 04:43:58;;;;;;;5.60;4.93;;;;;;;21.34;100.00;99908.03;5110330;28;20695;-70
2023/09/07 04:46:26;;;;;;;7.67;6.17;;;;;;;21.43;100.00;99900.44;5111065;28;20293;-70
2023/09/07 04:48:53;;;;;;;6.40;5.90;;;;;;;21.53;100.00;99905.03;5109407;28;20286;-70
2023/09/07 04:51:20;;;;;;;5.10;4.73;;;;;;;21.64;100.00;99908.63;5107756;28;20199;-70
2023/09/07 04:53:47;;;;;;;5.40;5.00;;;;;;;21.78;100.00;99910.28;5108973;28;20202;-70
2023/09/07 04:56:15;;;;;;;6.83;5.87;;;;;;;21.93;100.00;99915.34;5110495;28;20262;-70
2023/09/07 04:58:42;;;;;;;5.20;4.80;;;;;;;22.07;100.00;99916.16;5111072;28;20275;-70
2023/09/07 05:01:11;;;;;;;5.73;5.30;;;;;;;22.21;100.00;99918.63;5110870;28;20670;-70
2023/09/07 05:03:39;;;;;;;6.73;5.43;;;;;;;22.34;100.00;99919.44;5109884;28;20198;-69
2023/09/07 05:06:07;;;;;;;6.53;5.00;;;;;;;22.47;100.00;99915.03;5109725;28;20555;-70
2023/09/07 05:08:34;;;;;;;6.10;5.73;;;;;;;22.63;100.00;99923.44;5110820;28;20194;-70
2023/09/07 05:11:03;;;;;;;6.07;5.50;;;;;;;22.77;100.00;99923.34;5108901;28;20211;-70
2023/09/07 05:13:30;;;;;;;9.90;5.13;;;;;;;22.81;100.00;99921.34;5105008;28;20253;-70
2023/09/07 05:15:58;;;;;;;5.57;5.10;;;;;;;22.86;100.00;99925.28;5109431;28;20248;-70
2023/09/07 05:18:25;;;;;;;5.30;4.90;;;;;;;22.87;100.00;99937.41;5110018;28;20280;-70
2023/09/07 05:20:53;;;;;;;5.93;5.00;;;;;;;22.86;100.00;99927.91;5110321;28;20195;-70
2023/09/07 05:23:21;;;;;;;5.97;5.57;;;;;;;22.87;100.00;99924.34;5103434;28;20198;-70
2023/09/07 05:25:50;;;;;;;10.10;5.43;;;;;;;22.88;100.00;99926.00;5106267;28;20267;-71
2023/09/07 05:28:17;;;;;;;6.70;6.13;;;;;;;22.91;100.00;99919.69;5108127;28;20252;-71
2023/09/07 05:30:45;;;;;;;6.20;5.60;;;;;;;22.88;100.00;99915.53;5104236;28;20206;-74
2023/09/07 05:33:13;;;;;;;8.63;5.23;;;;;;;22.98;100.00;99920.94;5110095;28;20199;-73
2023/09/07 05:35:41;;;;;;;5.87;5.37;;;;;;;23.06;100.00;99923.00;5108399;28;20191;-73
2023/09/07 05:38:10;;;;;;;5.20;4.80;;;;;;;23.12;100.00;99928.63;5107128;28;20230;-73
2023/09/07 05:40:37;;;;;;;5.73;5.33;;;;;;;23.17;100.00;99933.50;5106165;28;20263;-73
2023/09/07 05:43:04;;;;;;;6.80;5.27;;;;;;;23.18;100.00;99928.16;5108240;28;20263;-74
2023/09/07 05:45:31;;;;;;;7.80;4.97;;;;;;;23.21;100.00;99924.47;5108780;28;20252;-72
2023/09/07 05:47:58;;;;;;;5.73;5.33;;;;;;;23.33;100.00;99926.16;5108893;28;20198;-70
2023/09/07 05:50:25;;;;;;;8.17;5.20;;;;;;;23.53;100.00;99928.19;5108355;28;20203;-72
2023/09/07 05:52:52;;;;;;;6.37;5.77;;;;;;;23.72;100.00;99925.00;5107485;28;20259;-72
2023/09/07 05:55:20;;;;;;;5.00;4.50;;;;;;;23.86;100.00;99930.88;5108448;28;20195;-68
2023/09/07 05:57:47;;;;;;;5.07;4.57;;;;;;;24.01;100.00;99937.53;5106027;28;20929;-68
2023/09/07 06:00:15;;;;;;;4.50;4.07;;;;;;;24.18;100.00;99932.81;5109649;28;20211;-67
2023/09/07 06:02:42;;;;;;;5.53;4.53;;;;;;;24.31;100.00;99926.50;5108542;28;20221;-66
2023/09/07 06:05:09;;;;;;;8.60;4.40;;;;;;;24.48;100.00;99933.88;5108460;28;20210;-67
2023/09/07 06:07:36;;;;;;;4.83;4.43;;;;;;;24.57;100.00;99927.06;5108020;28;20202;-67
2023/09/07 06:10:05;;;;;;;4.63;3.57;;;;;;;24.58;100.00;99923.50;5108003;28;20194;-67
2023/09/07 06:12:33;;;;;;;5.07;4.60;;;;;;;24.77;100.00;99928.94;5107869;28;20981;-67
2023/09/07 06:15:00;;;;;;;4.80;4.37;;;;;;;24.99;100.00;99923.66;5106786;28;20244;-67
2023/09/07 06:17:27;;;;;;;6.87;5.07;;;;;;;25.16;100.00;99929.31;5108285;28;20202;-67
2023/09/07 06:19:56;;;;;;;4.53;4.23;;;;;;;25.36;100.00;99925.88;5107209;28;20666;-67
2023/09/07 06:22:22;;;;;;;5.83;4.77;;;;;;;25.43;100.00;99940.97;5107185;28;20694;-67
2023/09/07 06:24:50;;;;;;;4.33;4.00;;;;;;;25.39;100.00;99941.38;5108423;28;20251;-67
2023/09/07 06:27:17;;;;;;;4.90;4.60;;;;;;;25.39;100.00;99942.22;5108313;28;20271;-67
2023/09/07 06:29:45;;;;;;;4.83;4.37;;;;;;;25.32;100.00;99941.06;5107160;28;20202;-68
2023/09/07 06:32:12;;;;;;;4.63;4.23;;;;;;;25.45;100.00;99946.94;5108428;28;20209;-68
2023/09/07 06:34:40;;;;;;;6.97;4.37;;;;;;;25.62;100.00;99948.22;5109179;28;20214;-69
2023/09/07 06:37:08;;;;;;;7.90;4.50;;;;;;;25.75;100.00;99938.31;5109338;28;20654;-71
2023/09/07 06:39:35;;;;;;;4.00;3.70;;;;;;;25.97;100.00;99943.44;5111661;28;20298;-71
2023/09/07 06:42:01;;;;;;;4.13;3.83;;;;;;;26.03;100.00;99950.78;5112041;28;20628;-70
2023/09/07 06:44:28;;;;;;;4.30;3.90;;;;;;;26.16;100.00;99944.47;5112601;27;20289;-69
2023/09/07 06:46:57;;;;;;;4.57;4.03;;;;;;;26.21;100.00;99929.16;5110762;28;20205;-70
2023/09/07 06:49:23;;;;;;;6.47;3.00;;;;;;;26.43;100.00;99940.31;5113454;28;20677;-71
2023/09/07 06:51:50;;;;;;;4.10;3.90;;;;;;;26.64;100.00;99942.88;5112683;28;20610;-71
2023/09/07 06:54:17;;;;;;;6.40;4.43;;;;;;;26.75;100.00;99953.28;5112961;28;20195;-71
2023/09/07 06:56:44;;;;;;;4.17;3.77;;;;;;;26.91;100.00;99951.00;5112584;28;20217;-71
2023/09/07 06:59:11;;;;;;;3.30;3.03;;;;;;;26.99;98.77;99953.78;5112751;28;20215;-71
2023/09/07 07:01:38;;;;;;;3.50;3.20;;;;;;;27.13;98.70;99945.47;5112689;28;20218;-71
2023/09/07 07:04:07;;;;;;;3.97;3.67;;;;;;;27.23;97.52;99949.91;5112792;28;20244;-70
2023/09/07 07:06:34;;;;;;;3.40;3.17;;;;;;;27.23;94.72;99944.63;5113149;28;20625;-72
2023/09/07 07:09:02;;;;;;;3.83;2.83;;;;;;;27.28;93.04;99942.41;5112873;28;20655;-72
2023/09/07 07:11:28;;;;;;;2.77;2.60;;;;;;;27.33;96.63;99941.03;5112434;28;20209;-72
2023/09/07 07:13:55;;;;;;;2.70;2.60;;;;;;;27.44;91.73;99951.44;5113010;28;20248;-73
2023/09/07 07:16:22;;;;;;;3.07;2.93;;;;;;;27.47;91.96;99952.97;5113244;28;20210;-72
2023/09/07 07:18:49;;;;;;;3.33;3.00;;;;;;;27.57;93.78;99948.50;5111021;28;20251;-72
2023/09/07 07:21:17;;;;;;;3.43;3.13;;;;;;;27.69;92.95;99942.09;5111538;28;20639;-73
2023/09/07 07:23:43;;;;;;;4.00;3.70;;;;;;;27.69;92.02;99939.47;5110563;28;20346;-69
2023/09/07 07:26:10;;;;;;;2.70;2.50;;;;;;;27.57;90.63;99940.59;5109527;28;20199;-68
2023/09/07 07:28:37;;;;;;;3.33;3.13;;;;;;;27.61;90.09;99948.09;5105822;28;20216;-72
2023/09/07 07:31:09;;;;;;;2.30;2.20;;;;;;;27.83;90.52;99944.31;5111388;28;20279;-69
2023/09/07 07:33:37;;;;;;;2.60;2.40;;;;;;;28.01;86.72;99957.59;5109763;28;20199;-70
2023/09/07 07:36:04;;;;;;;2.20;2.03;;;;;;;28.08;84.44;99959.50;5110340;28;20626;-70
2023/09/07 07:38:32;;;;;;;3.03;2.50;;;;;;;27.94;84.00;99952.06;5107414;28;20261;-69
2023/09/07 07:40:58;;;;;;;2.57;2.47;;;;;;;28.08;84.17;99959.50;5110554;28;20210;-69
2023/09/07 07:43:25;;;;;;;3.03;2.87;;;;;;;28.05;84.27;99964.22;5111332;28;20226;-70
2023/09/07 07:45:53;;;;;;;2.97;2.87;;;;;;;28.13;85.98;99965.19;5109774;28;20202;-69
2023/09/07 07:48:20;;;;;;;2.10;2.00;;;;;;;28.17;82.02;99963.13;5110881;28;20610;-68
2023/09/07 07:50:47;;;;;;;4.33;2.50;;;;;;;28.08;85.74;99964.78;5107254;28;20199;-71
2023/09/07 07:53:14;;;;;;;2.80;2.60;;;;;;;28.02;89.10;99954.78;5111067;27;20199;-70
2023/09/07 07:55:42;;;;;;;5.37;2.23;;;;;;;28.06;84.93;99966.75;5111844;28;20259;-70
2023/09/07 07:58:10;;;;;;;2.37;2.27;;;;;;;27.99;83.71;99964.78;5109027;28;20252;-71
2023/09/07 08:00:38;;;;;;;2.73;2.60;;;;;;;27.83;85.16;99962.75;5109930;28;20195;-73
2023/09/07 08:03:06;;;;;;;2.20;2.10;;;;;;;27.89;87.54;99959.53;5111461;28;20305;-70
2023/09/07 08:05:34;;;;;;;2.50;2.40;;;;;;;27.88;83.00;99968.44;5111311;28;20273;-70
2023/09/07 08:08:01;;;;;;;2.83;2.63;;;;;;;28.00;84.74;99962.03;5111656;28;20259;-72
2023/09/07 08:10:28;;;;;;;2.60;2.50;;;;;;;27.97;85.51;99964.94;5111620;28;20203;-71
2023/09/07 08:12:57;;;;;;;2.80;2.60;;;;;;;27.71;83.99;99966.53;5111650;27;20698;-70
2023/09/07 08:15:24;;;;;;;2.10;2.00;;;;;;;27.56;85.00;99952.16;5110480;28;20198;-69
2023/09/07 08:17:51;;;;;;;2.77;2.67;;;;;;;27.62;86.68;99959.47;5112164;28;20198;-71
2023/09/07 08:20:18;;;;;;;3.17;2.97;;;;;;;27.60;82.97;99954.34;5111826;28;20715;-70
2023/09/07 08:22:45;;;;;;;2.27;2.17;;;;;;;27.54;80.78;99959.34;5110823;28;20267;-68
2023/09/07 08:25:13;;;;;;;2.93;2.77;;;;;;;27.61;82.85;99950.75;5111459;28;20212;-68
2023/09/07 08:27:43;;;;;;;2.63;2.43;;;;;;;27.41;83.37;99958.75;5111577;28;20197;-70
2023/09/07 08:30:12;;;;;;;2.93;2.73;;;;;;;27.41;84.22;99964.03;5111710;28;20203;-71
2023/09/07 08:32:39;;;;;;;2.63;2.43;;;;;;;27.32;84.93;99954.34;5110309;28;20195;-73
2023/09/07 08:35:09;;;;;;;5.23;2.53;;;;;;;27.25;83.42;99947.94;5110925;28;20198;-70
2023/09/07 08:37:35;;;;;;;3.07;2.87;;;;;;;27.24;83.01;99946.31;5109992;28;20217;-69
2023/09/07 08:40:04;;;;;;;2.33;2.23;;;;;;;26.92;85.49;99947.38;5109063;28;20201;-69
2023/09/07 08:42:31;;;;;;;3.30;3.00;;;;;;;26.98;83.18;99954.72;5110664;28;20305;-73
2023/09/07 08:45:06;;;;;;;2.83;2.57;;;;;;;26.89;86.54;99950.28;5110808;28;20251;-71
2023/09/07 08:47:35;;;;;;;2.53;2.43;;;;;;;26.83;85.38;99948.22;5110409;28;20289;-72
2023/09/07 08:50:02;;;;;;;4.57;4.13;;;;;;;26.85;85.12;99943.63;5110802;28;20198;-69
2023/09/07 08:52:29;;;;;;;10.50;8.00;;;;;;;26.90;86.27;99949.34;5110763;28;20191;-70
2023/09/07 08:54:58;;;;;;;4.93;3.57;;;;;;;26.90;85.67;99946.69;5110278;28;20202;-69
2023/09/07 08:57:26;;;;;;;2.63;2.43;;;;;;;26.81;85.38;99942.25;5110798;28;20202;-70
2023/09/07 08:59:52;;;;;;;3.03;2.90;;;;;;;26.65;84.70;99938.44;5107459;28;20575;-68
2023/09/07 09:02:20;;;;;;;2.90;2.70;;;;;;;26.69;85.69;99935.41;5108881;28;20809;-69
2023/09/07 09:04:48;;;;;;;2.27;2.17;;;;;;;26.81;84.00;99939.63;5110056;28;20202;-69
2023/09/07 09:07:15;;;;;;;3.30;3.10;;;;;;;26.86;83.19;99942.66;5106322;28;20206;-68
2023/09/07 09:09:42;;;;;;;2.60;2.50;;;;;;;26.89;83.92;99931.03;5110325;28;20206;-68
2023/09/07 09:12:09;;;;;;;2.20;2.10;;;;;;;27.11;83.70;99938.66;5108905;28;20226;-68
2023/09/07 09:14:36;;;;;;;2.30;2.20;;;;;;;27.26;79.04;99928.56;5107855;28;20206;-71
2023/09/07 09:17:03;;;;;;;2.47;2.37;;;;;;;27.56;79.42;99931.06;5109048;28;20198;-69
2023/09/07 09:19:33;;;;;;;2.23;2.13;;;;;;;27.73;79.15;99927.69;5109928;28;20263;-71
2023/09/07 09:22:03;;;;;;;2.53;2.43;;;;;;;27.80;78.49;99927.94;5109773;28;20198;-70
2023/09/07 09:24:33;;;;;;;2.90;2.70;;;;;;;27.88;76.81;99931.53;5109414;28;20206;-69
2023/09/07 09:27:00;;;;;;;2.83;2.73;;;;;;;28.00;76.75;99927.75;5109791;28;20297;-70
2023/09/07 09:29:27;;;;;;;2.67;2.57;;;;;;;28.05;77.59;99928.16;5104051;28;20203;-70
2023/09/07 09:31:54;;;;;;;2.50;2.40;;;;;;;28.03;76.25;99932.75;5107892;28;20221;-68
2023/09/07 09:34:21;;;;;;;2.80;2.63;;;;;;;28.09;78.38;99929.56;5107935;28;20582;-69
2023/09/07 09:36:48;;;;;;;2.30;2.20;;;;;;;28.19;75.91;99923.41;5109106;28;20203;-69
2023/09/07 09:39:24;;;;;;;2.93;2.70;;;;;;;28.22;77.17;99923.94;5109129;28;20627;-68
2023/09/07 09:41:51;;;;;;;2.30;2.20;;;;;;;28.15;76.08;99915.78;5109357;28;20683;-68
2023/09/07 09:44:21;;;;;;;2.50;2.30;;;;;;;27.86;76.50;99917.66;5107128;28;20214;-68
2023/09/07 09:46:48;;;;;;;2.27;2.17;;;;;;;27.75;77.37;99907.31;5108413;28;20204;-69
2023/09/07 09:49:17;;;;;;;2.53;2.33;;;;;;;27.79;78.67;99900.75;5107044;28;20207;-68
2023/09/07 09:51:46;;;;;;;2.77;2.57;;;;;;;27.86;76.36;99915.03;5109500;28;20277;-68
2023/09/07 09:54:13;;;;;;;2.93;2.73;;;;;;;27.94;76.59;99919.59;5105570;28;20202;-70
2023/09/07 09:56:42;;;;;;;2.50;2.40;;;;;;;27.92;78.78;99903.06;5105925;28;20289;-74
2023/09/07 09:59:09;;;;;;;3.27;2.97;;;;;;;27.98;78.15;99903.31;5107077;28;20207;-72
2023/09/07 10:01:45;;;;;;;2.60;2.40;;;;;;;28.15;77.13;99902.59;5105081;28;20203;-74
2023/09/07 10:04:14;;;;;;;5.50;2.50;;;;;;;28.03;75.62;99893.19;5105772;28;20304;-72
2023/09/07 10:06:52;;;;;;;2.23;2.13;;;;;;;28.06;74.98;99903.47;5107078;28;20970;-73
2023/09/07 10:09:19;;;;;;;2.20;2.10;;;;;;;27.90;73.90;99894.50;5108762;28;20651;-74
2023/09/07 10:11:54;;;;;;;2.10;2.00;;;;;;;27.85;74.08;99899.38;5108374;28;20314;-74
2023/09/07 10:14:21;;;;;;;2.97;2.77;;;;;;;27.72;75.94;99889.16;5111733;28;20260;-74
2023/09/07 10:17:04;;;;;;;2.13;2.03;;;;;;;27.60;74.63;99891.13;5111913;28;20221;-73
2023/09/07 10:20:05;;;;;;;2.00;1.90;;;;;;;27.57;75.11;99890.56;5111888;28;20230;-72
2023/09/07 10:22:32;;;;;;;2.03;1.93;;;;;;;27.67;74.90;99886.09;5077135;28;20205;-73
2023/09/07 10:25:19;;;;;;;2.60;2.50;;;;;;;27.75;74.94;99883.59;5110221;28;20781;-69
2023/09/07 10:27:53;;;;;;;1.70;1.60;;;;;;;27.77;76.00;99886.91;5110938;28;20211;-69
2023/09/07 10:30:23;;;;;;;5.97;1.70;;;;;;;27.75;73.30;99880.97;5111703;28;20259;-69
2023/09/07 10:32:50;;;;;;;2.00;1.90;;;;;;;27.74;70.71;99887.19;5112684;28;20222;-70
2023/09/07 10:35:21;;;;;;;1.67;1.57;;;;;;;27.87;71.66;99881.59;5112778;28;20198;-69
2023/09/07 10:37:48;;;;;;;2.17;2.03;;;;;;;28.06;71.66;99877.13;5112411;28;20548;-69
2023/09/07 10:40:21;;;;;;;3.20;1.53;;;;;;;28.17;66.99;99880.53;5113000;28;20267;-70
2023/09/07 10:42:49;;;;;;;2.20;2.00;;;;;;;28.25;68.80;99873.53;5111260;27;20213;-70
2023/09/07 10:45:17;;;;;;;1.77;1.67;;;;;;;28.25;68.68;99880.63;5113523;28;20281;-69
2023/09/07 10:47:45;;;;;;;1.60;1.60;;;;;;;28.35;66.32;99876.13;5112358;28;20211;-69
2023/09/07 10:50:13;;;;;;;1.60;1.50;;;;;;;28.36;62.82;99878.63;5113932;28;20662;-70
2023/09/07 10:52:41;;;;;;;1.53;1.50;;;;;;;28.40;66.12;99879.16;5113428;28;20285;-69
2023/09/07 10:55:10;;;;;;;1.60;1.50;;;;;;;28.34;65.29;99871.81;5112110;28;20230;-69
2023/09/07 10:57:47;;;;;;;1.60;1.50;;;;;;;28.46;65.72;99868.03;5109807;27;20308;-69
2023/09/07 11:00:16;;;;;;;2.43;2.23;;;;;;;28.51;65.50;99876.31;5109523;28;20194;-69
2023/09/07 11:02:44;;;;;;;1.97;1.87;;;;;;;28.44;66.51;99869.97;5111156;28;20577;-69
2023/09/07 11:05:11;;;;;;;2.83;2.73;;;;;;;28.40;65.25;99876.53;5111363;28;20206;-69
2023/09/07 11:07:38;;;;;;;1.77;1.67;;;;;;;28.46;65.51;99873.31;5112117;28;20202;-69
2023/09/07 11:10:07;;;;;;;1.53;1.47;;;;;;;28.51;64.50;99881.59;5111966;28;20211;-68
2023/09/07 11:12:39;;;;;;;1.90;1.80;;;;;;;28.60;63.42;99864.84;5113237;28;20583;-69
2023/09/07 11:15:09;;;;;;;2.03;1.92;;;;;;;28.69;66.76;99857.91;5113197;28;20254;-69
2023/09/07 11:17:39;;;;;;;2.00;1.90;;;;;;;28.76;65.85;99862.41;5112292;28;20217;-69
2023/09/07 11:20:10;;;;;;;2.05;1.95;;;;;;;28.73;65.17;99853.97;5112308;28;20234;-68
2023/09/07 11:22:38;;;;;;;2.45;2.35;;;;;;;28.78;67.01;99846.44;5112703;28;20553;-67
2023/09/07 11:25:06;;;;;;;2.23;2.13;;;;;;;28.76;66.68;99849.22;5112546;28;20751;-68
2023/09/07 11:27:33;;;;;;;2.10;2.00;;;;;;;28.95;67.19;99842.97;5112385;28;20241;-70
2023/09/07 11:30:03;;;;;;;3.20;2.10;;;;;;;29.04;65.38;99836.75;5111240;27;20658;-69
2023/09/07 11:32:35;;;;;;;1.45;1.35;;;;;;;29.05;63.87;99833.94;5112402;27;20559;-68